sensor_id;sensor_type;location;lat;lon;timestamp;pressure;altitude;pressure_sealevel;temperature;humidity
63916;BME280;50094;51.356;-0.196;2023-06-10T12:54:26;100475.00;;;28.29;33.30
63916;BME280;50094;51.356;-0.196;2023-06-10T12:56:53;100476.30;;;27.06;33.09
63916;BME280;50094;51.356;-0.196;2023-06-10T12:59:20;100484.21;;;29.09;32.87
63916;BME280;50094;51.356;-0.196;2023-06-10T13:01:50;100483.48;;;28.57;32.89
63916;BME280;50094;51.356;-0.196;2023-06-10T13:04:18;100479.02;;;28.72;32.95
63916;BME280;50094;51.356;-0.196;2023-06-10T13:06:45;100479.53;;;28.65;33.01
63916;BME280;50094;51.356;-0.196;2023-06-10T13:09:13;100478.20;;;28.32;33.10
63916;BME280;50094;51.356;-0.196;2023-06-10T13:11:41;100479.76;;;28.79;33.17
63916;BME280;50094;51.356;-0.196;2023-06-10T13:14:07;100476.66;;;28.79;33.19
63916;BME280;50094;51.356;-0.196;2023-06-10T13:16:35;100475.57;;;28.28;33.26
63916;BME280;50094;51.356;-0.196;2023-06-10T13:19:02;100466.85;;;28.54;33.28
63916;BME280;50094;51.356;-0.196;2023-06-10T13:21:29;100471.44;;;28.76;33.29
63916;BME280;50094;51.356;-0.196;2023-06-10T13:23:55;100473.57;;;28.77;33.32
63916;BME280;50094;51.356;-0.196;2023-06-10T13:26:22;100476.26;;;28.80;33.32
63916;BME280;50094;51.356;-0.196;2023-06-10T13:28:49;100469.27;;;28.61;33.35
63916;BME280;50094;51.356;-0.196;2023-06-10T13:31:16;100466.04;;;28.59;33.30
63916;BME280;50094;51.356;-0.196;2023-06-10T13:33:43;100470.74;;;28.65;33.33
63916;BME280;50094;51.356;-0.196;2023-06-10T13:36:10;100473.62;;;28.85;33.32
63916;BME280;50094;51.356;-0.196;2023-06-10T13:38:37;100469.98;;;28.89;33.29
63916;BME280;50094;51.356;-0.196;2023-06-10T13:41:05;100469.78;;;28.91;33.28
63916;BME280;50094;51.356;-0.196;2023-06-10T13:43:32;100468.78;;;28.68;33.25
63916;BME280;50094;51.356;-0.196;2023-06-10T13:45:59;100462.33;;;28.84;33.23
63916;BME280;50094;51.356;-0.196;2023-06-10T13:48:26;100468.38;;;28.31;33.22
63916;BME280;50094;51.356;-0.196;2023-06-10T13:50:53;100461.83;;;28.57;33.23
63916;BME280;50094;51.356;-0.196;2023-06-10T13:53:20;100461.61;;;28.58;33.22
63916;BME280;50094;51.356;-0.196;2023-06-10T13:55:47;100461.36;;;28.62;33.18
63916;BME280;50094;51.356;-0.196;2023-06-10T13:58:14;100460.07;;;28.68;33.14
63916;BME280;50094;51.356;-0.196;2023-06-10T14:00:41;100460.34;;;28.67;33.10
63916;BME280;50094;51.356;-0.196;2023-06-10T14:03:08;100462.90;;;28.64;33.11
63916;BME280;50094;51.356;-0.196;2023-06-10T14:05:35;100465.64;;;28.65;33.10
63916;BME280;50094;51.356;-0.196;2023-06-10T14:08:01;100465.35;;;28.87;33.10
63916;BME280;50094;51.356;-0.196;2023-06-10T14:10:28;100465.42;;;28.63;33.08
63916;BME280;50094;51.356;-0.196;2023-06-10T14:12:56;100469.20;;;28.86;33.08
63916;BME280;50094;51.356;-0.196;2023-06-10T14:15:23;100463.87;;;28.61;33.07
63916;BME280;50094;51.356;-0.196;2023-06-10T14:17:50;100467.74;;;28.60;33.09
63916;BME280;50094;51.356;-0.196;2023-06-10T14:20:17;100463.14;;;28.82;33.09
63916;BME280;50094;51.356;-0.196;2023-06-10T14:22:45;100464.49;;;28.86;33.09
63916;BME280;50094;51.356;-0.196;2023-06-10T14:25:11;100469.12;;;28.84;33.09
63916;BME280;50094;51.356;-0.196;2023-06-10T14:27:38;100470.40;;;28.87;33.10
63916;BME280;50094;51.356;-0.196;2023-06-10T14:30:06;100467.44;;;28.67;33.11
63916;BME280;50094;51.356;-0.196;2023-06-10T14:32:34;100466.46;;;28.68;33.08
63916;BME280;50094;51.356;-0.196;2023-06-10T14:35:01;100470.98;;;28.72;33.09
63916;BME280;50094;51.356;-0.196;2023-06-10T14:37:28;100471.97;;;28.75;33.08
63916;BME280;50094;51.356;-0.196;2023-06-10T14:39:55;100467.72;;;28.48;33.06
63916;BME280;50094;51.356;-0.196;2023-06-10T14:42:22;100466.67;;;28.48;33.07
63916;BME280;50094;51.356;-0.196;2023-06-10T14:44:49;100461.00;;;28.79;33.06
63916;BME280;50094;51.356;-0.196;2023-06-10T14:47:16;100465.26;;;28.80;33.04
63916;BME280;50094;51.356;-0.196;2023-06-10T14:49:44;100476.78;;;28.54;33.03
63916;BME280;50094;51.356;-0.196;2023-06-10T14:52:11;100474.60;;;28.84;33.03
63916;BME280;50094;51.356;-0.196;2023-06-10T14:54:38;100470.56;;;29.11;33.00
63916;BME280;50094;51.356;-0.196;2023-06-10T14:57:05;100470.51;;;28.93;32.99
63916;BME280;50094;51.356;-0.196;2023-06-10T14:59:33;100474.52;;;29.14;32.96
63916;BME280;50094;51.356;-0.196;2023-06-10T15:02:00;100467.32;;;28.92;32.96
63916;BME280;50094;51.356;-0.196;2023-06-10T15:04:27;100465.80;;;28.67;32.95
63916;BME280;50094;51.356;-0.196;2023-06-10T15:06:55;100458.51;;;28.97;32.91
63916;BME280;50094;51.356;-0.196;2023-06-10T15:09:21;100463.82;;;28.98;32.90
63916;BME280;50094;51.356;-0.196;2023-06-10T15:11:49;100464.14;;;28.75;32.87
63916;BME280;50094;51.356;-0.196;2023-06-10T15:14:16;100468.38;;;28.75;32.87
63916;BME280;50094;51.356;-0.196;2023-06-10T15:16:43;100469.88;;;28.76;32.85
63916;BME280;50094;51.356;-0.196;2023-06-10T15:19:11;100462.70;;;28.75;32.86
63916;BME280;50094;51.356;-0.196;2023-06-10T15:21:38;100463.03;;;28.76;32.88
63916;BME280;50094;51.356;-0.196;2023-06-10T15:24:06;100465.01;;;28.76;32.85
63916;BME280;50094;51.356;-0.196;2023-06-10T15:26:33;100459.90;;;29.04;32.85
63916;BME280;50094;51.356;-0.196;2023-06-10T15:29:00;100464.05;;;28.79;32.86
63916;BME280;50094;51.356;-0.196;2023-06-10T15:31:28;100461.99;;;29.08;32.86
63916;BME280;50094;51.356;-0.196;2023-06-10T15:33:55;100460.91;;;28.84;32.83
63916;BME280;50094;51.356;-0.196;2023-06-10T15:36:22;100463.32;;;28.85;32.83
63916;BME280;50094;51.356;-0.196;2023-06-10T15:38:49;100466.96;;;28.88;32.81
63916;BME280;50094;51.356;-0.196;2023-06-10T15:41:16;100467.62;;;28.89;32.80
63916;BME280;50094;51.356;-0.196;2023-06-10T15:43:43;100466.93;;;29.39;32.80
63916;BME280;50094;51.356;-0.196;2023-06-10T15:46:10;100469.38;;;28.92;32.81
63916;BME280;50094;51.356;-0.196;2023-06-10T15:48:37;100465.42;;;29.21;32.78
63916;BME280;50094;51.356;-0.196;2023-06-10T15:51:04;100461.79;;;28.96;32.78
63916;BME280;50094;51.356;-0.196;2023-06-10T15:53:31;100456.92;;;28.97;32.76
63916;BME280;50094;51.356;-0.196;2023-06-10T15:55:58;100459.00;;;28.96;32.74
63916;BME280;50094;51.356;-0.196;2023-06-10T15:58:24;100459.00;;;28.98;32.76
63916;BME280;50094;51.356;-0.196;2023-06-10T16:00:51;100462.80;;;29.03;32.73
63916;BME280;50094;51.356;-0.196;2023-06-10T16:03:18;100463.43;;;29.03;32.71
63916;BME280;50094;51.356;-0.196;2023-06-10T16:05:45;100470.44;;;29.03;32.71
63916;BME280;50094;51.356;-0.196;2023-06-10T16:08:12;100472.52;;;29.03;32.71
63916;BME280;50094;51.356;-0.196;2023-06-10T16:10:39;100469.24;;;29.03;32.70
63916;BME280;50094;51.356;-0.196;2023-06-10T16:13:05;100471.41;;;29.05;32.70
63916;BME280;50094;51.356;-0.196;2023-06-10T16:15:32;100478.07;;;29.06;32.66
63916;BME280;50094;51.356;-0.196;2023-06-10T16:17:59;100473.57;;;29.06;32.67
63916;BME280;50094;51.356;-0.196;2023-06-10T16:20:26;100475.78;;;29.05;32.67
63916;BME280;50094;51.356;-0.196;2023-06-10T16:22:53;100470.20;;;29.05;32.65
63916;BME280;50094;51.356;-0.196;2023-06-10T16:25:20;100473.33;;;29.05;32.66
63916;BME280;50094;51.356;-0.196;2023-06-10T16:27:47;100473.05;;;29.32;32.65
63916;BME280;50094;51.356;-0.196;2023-06-10T16:30:14;100470.81;;;28.85;32.65
63916;BME280;50094;51.356;-0.196;2023-06-10T16:32:41;100476.08;;;29.09;32.62
63916;BME280;50094;51.356;-0.196;2023-06-10T16:35:08;100469.49;;;29.08;32.62
63916;BME280;50094;51.356;-0.196;2023-06-10T16:37:36;100470.27;;;29.35;32.62
63916;BME280;50094;51.356;-0.196;2023-06-10T16:40:03;100475.75;;;29.08;32.61
63916;BME280;50094;51.356;-0.196;2023-06-10T16:42:30;100473.63;;;29.10;32.60
63916;BME280;50094;51.356;-0.196;2023-06-10T16:44:58;100477.96;;;29.13;32.57
63916;BME280;50094;51.356;-0.196;2023-06-10T16:47:25;100480.10;;;29.12;32.56
63916;BME280;50094;51.356;-0.196;2023-06-10T16:49:52;100481.18;;;29.12;32.57
63916;BME280;50094;51.356;-0.196;2023-06-10T16:52:19;100484.51;;;29.14;32.55
63916;BME280;50094;51.356;-0.196;2023-06-10T16:54:46;100486.67;;;29.12;32.55
63916;BME280;50094;51.356;-0.196;2023-06-10T16:57:13;100483.85;;;29.12;32.55
63916;BME280;50094;51.356;-0.196;2023-06-10T16:59:40;100483.25;;;29.41;32.54
63916;BME280;50094;51.356;-0.196;2023-06-10T17:02:07;100487.72;;;29.13;32.52
63916;BME280;50094;51.356;-0.196;2023-06-10T17:04:34;100482.44;;;28.91;32.50
63916;BME280;50094;51.356;-0.196;2023-06-10T17:07:01;100487.74;;;29.12;32.49
63916;BME280;50094;51.356;-0.196;2023-06-10T17:09:28;100493.46;;;29.11;32.48
63916;BME280;50094;51.356;-0.196;2023-06-10T17:11:55;100491.54;;;29.12;32.48
63916;BME280;50094;51.356;-0.196;2023-06-10T17:14:22;100501.50;;;29.11;32.46
63916;BME280;50094;51.356;-0.196;2023-06-10T17:16:48;100499.26;;;29.11;32.45
63916;BME280;50094;51.356;-0.196;2023-06-10T17:19:15;100507.61;;;29.13;32.43
63916;BME280;50094;51.356;-0.196;2023-06-10T17:21:42;100503.91;;;29.40;32.43
63916;BME280;50094;51.356;-0.196;2023-06-10T17:24:09;100503.64;;;29.15;32.41
63916;BME280;50094;51.356;-0.196;2023-06-10T17:26:36;100500.83;;;29.40;32.40
63916;BME280;50094;51.356;-0.196;2023-06-10T17:29:03;100502.55;;;29.12;32.38
63916;BME280;50094;51.356;-0.196;2023-06-10T17:31:30;100505.97;;;29.12;32.36
63916;BME280;50094;51.356;-0.196;2023-06-10T17:33:56;100508.85;;;29.12;32.34
63916;BME280;50094;51.356;-0.196;2023-06-10T17:36:23;100510.58;;;29.39;32.34
63916;BME280;50094;51.356;-0.196;2023-06-10T17:38:51;100515.72;;;29.12;32.31
63916;BME280;50094;51.356;-0.196;2023-06-10T17:41:17;100515.61;;;29.40;32.30
63916;BME280;50094;51.356;-0.196;2023-06-10T17:43:44;100520.26;;;29.13;32.27
63916;BME280;50094;51.356;-0.196;2023-06-10T17:46:11;100521.07;;;29.41;32.25
63916;BME280;50094;51.356;-0.196;2023-06-10T17:48:38;100516.63;;;29.15;32.23
63916;BME280;50094;51.356;-0.196;2023-06-10T17:51:06;100522.15;;;29.14;32.20
63916;BME280;50094;51.356;-0.196;2023-06-10T17:53:32;100521.55;;;29.13;32.17
63916;BME280;50094;51.356;-0.196;2023-06-10T17:56:00;100521.27;;;29.11;32.16
63916;BME280;50094;51.356;-0.196;2023-06-10T17:58:27;100530.63;;;29.10;32.15
63916;BME280;50094;51.356;-0.196;2023-06-10T18:00:54;100525.22;;;29.36;32.12
63916;BME280;50094;51.356;-0.196;2023-06-10T18:03:21;100524.02;;;29.11;32.10
63916;BME280;50094;51.356;-0.196;2023-06-10T18:05:48;100522.58;;;29.36;32.10
63916;BME280;50094;51.356;-0.196;2023-06-10T18:08:14;100522.59;;;29.09;32.08
63916;BME280;50094;51.356;-0.196;2023-06-10T18:10:41;100524.16;;;29.11;32.04
63916;BME280;50094;51.356;-0.196;2023-06-10T18:13:08;100534.59;;;29.11;32.02
63916;BME280;50094;51.356;-0.196;2023-06-10T18:15:35;100534.81;;;29.11;32.00
63916;BME280;50094;51.356;-0.196;2023-06-10T18:18:03;100536.29;;;29.09;31.97
63916;BME280;50094;51.356;-0.196;2023-06-10T18:20:30;100535.47;;;29.08;31.97
63916;BME280;50094;51.356;-0.196;2023-06-10T18:22:58;100535.08;;;29.06;31.97
63916;BME280;50094;51.356;-0.196;2023-06-10T18:25:25;100535.22;;;29.32;31.97
63916;BME280;50094;51.356;-0.196;2023-06-10T18:27:53;100535.73;;;29.03;31.98
63916;BME280;50094;51.356;-0.196;2023-06-10T18:30:20;100538.69;;;29.04;31.97
63916;BME280;50094;51.356;-0.196;2023-06-10T18:32:46;100538.01;;;29.32;31.96
63916;BME280;50094;51.356;-0.196;2023-06-10T18:35:13;100540.19;;;29.05;31.95
63916;BME280;50094;51.356;-0.196;2023-06-10T18:37:40;100538.57;;;29.03;31.94
63916;BME280;50094;51.356;-0.196;2023-06-10T18:40:08;100540.09;;;29.02;31.94
63916;BME280;50094;51.356;-0.196;2023-06-10T18:42:35;100538.99;;;29.02;31.94
63916;BME280;50094;51.356;-0.196;2023-06-10T18:45:03;100541.88;;;29.02;31.94
63916;BME280;50094;51.356;-0.196;2023-06-10T18:47:30;100542.15;;;29.02;31.93
63916;BME280;50094;51.356;-0.196;2023-06-10T18:49:57;100539.93;;;29.03;31.91
63916;BME280;50094;51.356;-0.196;2023-06-10T18:52:24;100540.28;;;29.02;31.90
63916;BME280;50094;51.356;-0.196;2023-06-10T18:54:52;100544.21;;;29.27;31.91
63916;BME280;50094;51.356;-0.196;2023-06-10T18:57:19;100545.16;;;29.00;31.91
63916;BME280;50094;51.356;-0.196;2023-06-10T18:59:46;100542.57;;;29.00;31.91
63916;BME280;50094;51.356;-0.196;2023-06-10T19:02:13;100539.31;;;29.00;31.90
63916;BME280;50094;51.356;-0.196;2023-06-10T19:04:40;100541.34;;;29.00;31.89
63916;BME280;50094;51.356;-0.196;2023-06-10T19:07:07;100546.93;;;28.96;31.91
63916;BME280;50094;51.356;-0.196;2023-06-10T19:09:34;100552.65;;;29.44;31.92
63916;BME280;50094;51.356;-0.196;2023-06-10T19:12:01;100555.24;;;28.97;31.90
63916;BME280;50094;51.356;-0.196;2023-06-10T19:14:28;100557.54;;;28.98;31.90
63916;BME280;50094;51.356;-0.196;2023-06-10T19:16:55;100560.32;;;28.96;31.91
63916;BME280;50094;51.356;-0.196;2023-06-10T19:19:22;100562.55;;;28.96;31.90
63916;BME280;50094;51.356;-0.196;2023-06-10T19:21:48;100564.23;;;28.92;31.93
63916;BME280;50094;51.356;-0.196;2023-06-10T19:24:16;100569.48;;;28.93;31.93
63916;BME280;50094;51.356;-0.196;2023-06-10T19:26:43;100574.32;;;28.92;31.94
63916;BME280;50094;51.356;-0.196;2023-06-10T19:29:10;100575.89;;;29.20;31.95
63916;BME280;50094;51.356;-0.196;2023-06-10T19:31:37;100580.47;;;29.00;31.91
63916;BME280;50094;51.356;-0.196;2023-06-10T19:34:04;100580.90;;;28.97;31.91
63916;BME280;50094;51.356;-0.196;2023-06-10T19:36:31;100588.81;;;28.93;31.93
63916;BME280;50094;51.356;-0.196;2023-06-10T19:38:58;100587.95;;;29.18;31.94
63916;BME280;50094;51.356;-0.196;2023-06-10T19:41:25;100591.69;;;28.94;31.94
63916;BME280;50094;51.356;-0.196;2023-06-10T19:43:51;100596.04;;;28.94;31.93
63916;BME280;50094;51.356;-0.196;2023-06-10T19:46:18;100593.46;;;28.93;31.95
63916;BME280;50094;51.356;-0.196;2023-06-10T19:48:45;100596.03;;;28.94;31.93
63916;BME280;50094;51.356;-0.196;2023-06-10T19:51:14;100595.60;;;29.19;31.96
63916;BME280;50094;51.356;-0.196;2023-06-10T19:53:41;100594.27;;;28.93;31.94
63916;BME280;50094;51.356;-0.196;2023-06-10T19:56:08;100597.98;;;28.90;31.96
63916;BME280;50094;51.356;-0.196;2023-06-10T19:58:35;100599.46;;;29.14;31.97
63916;BME280;50094;51.356;-0.196;2023-06-10T20:01:02;100602.03;;;28.89;31.97
63916;BME280;50094;51.356;-0.196;2023-06-10T20:03:29;100605.58;;;28.66;31.96
63916;BME280;50094;51.356;-0.196;2023-06-10T20:05:56;100606.57;;;28.87;31.97
63916;BME280;50094;51.356;-0.196;2023-06-10T20:08:23;100611.53;;;29.14;31.97
63916;BME280;50094;51.356;-0.196;2023-06-10T20:10:50;100612.75;;;29.38;31.96
63916;BME280;50094;51.356;-0.196;2023-06-10T20:13:18;100615.30;;;28.87;31.96
63916;BME280;50094;51.356;-0.196;2023-06-10T20:15:45;100620.83;;;29.13;31.96
63916;BME280;50094;51.356;-0.196;2023-06-10T20:18:12;100622.87;;;29.13;31.96
63916;BME280;50094;51.356;-0.196;2023-06-10T20:20:39;100628.95;;;28.87;31.96
63916;BME280;50094;51.356;-0.196;2023-06-10T20:23:06;100628.36;;;28.87;31.94
63916;BME280;50094;51.356;-0.196;2023-06-10T20:25:33;100630.36;;;29.13;31.95
63916;BME280;50094;51.356;-0.196;2023-06-10T20:28:01;100632.38;;;28.88;31.96
63916;BME280;50094;51.356;-0.196;2023-06-10T20:30:28;100633.07;;;28.89;31.94
63916;BME280;50094;51.356;-0.196;2023-06-10T20:32:56;100635.37;;;28.89;31.93
63916;BME280;50094;51.356;-0.196;2023-06-10T20:35:23;100640.73;;;29.18;31.90
63916;BME280;50094;51.356;-0.196;2023-06-10T20:37:50;100645.20;;;28.92;31.88
63916;BME280;50094;51.356;-0.196;2023-06-10T20:40:17;100647.22;;;28.91;31.87
63916;BME280;50094;51.356;-0.196;2023-06-10T20:42:45;100653.38;;;28.90;31.87
63916;BME280;50094;51.356;-0.196;2023-06-10T20:45:12;100651.97;;;29.15;31.88
63916;BME280;50094;51.356;-0.196;2023-06-10T20:47:40;100656.69;;;29.13;31.89
63916;BME280;50094;51.356;-0.196;2023-06-10T20:50:08;100657.62;;;28.85;31.90
63916;BME280;50094;51.356;-0.196;2023-06-10T20:52:34;100664.12;;;28.85;31.90
63916;BME280;50094;51.356;-0.196;2023-06-10T20:55:01;100667.04;;;29.11;31.91
63916;BME280;50094;51.356;-0.196;2023-06-10T20:57:29;100665.78;;;29.10;31.90
63916;BME280;50094;51.356;-0.196;2023-06-10T20:59:56;100667.43;;;28.81;31.93
63916;BME280;50094;51.356;-0.196;2023-06-10T21:02:23;100668.30;;;28.84;31.90
63916;BME280;50094;51.356;-0.196;2023-06-10T21:04:50;100668.16;;;29.13;31.89
63916;BME280;50094;51.356;-0.196;2023-06-10T21:07:17;100668.25;;;29.37;31.86
63916;BME280;50094;51.356;-0.196;2023-06-10T21:09:44;100671.43;;;28.89;31.83
63916;BME280;50094;51.356;-0.196;2023-06-10T21:12:11;100670.41;;;28.66;31.82
63916;BME280;50094;51.356;-0.196;2023-06-10T21:14:38;100671.47;;;29.16;31.78
63916;BME280;50094;51.356;-0.196;2023-06-10T21:17:05;100673.67;;;28.87;31.78
63916;BME280;50094;51.356;-0.196;2023-06-10T21:19:33;100673.06;;;28.89;31.74
63916;BME280;50094;51.356;-0.196;2023-06-10T21:22:01;100671.94;;;29.17;31.71
63916;BME280;50094;51.356;-0.196;2023-06-10T21:24:28;100670.98;;;29.15;31.70
63916;BME280;50094;51.356;-0.196;2023-06-10T21:26:55;100674.99;;;28.87;31.68
63916;BME280;50094;51.356;-0.196;2023-06-10T21:29:23;100673.07;;;28.86;31.68
63916;BME280;50094;51.356;-0.196;2023-06-10T21:31:50;100669.55;;;28.86;31.68
63916;BME280;50094;51.356;-0.196;2023-06-10T21:34:17;100670.09;;;28.88;31.67
63916;BME280;50094;51.356;-0.196;2023-06-10T21:36:44;100671.66;;;28.88;31.64
63916;BME280;50094;51.356;-0.196;2023-06-10T21:39:10;100672.64;;;28.89;31.60
63916;BME280;50094;51.356;-0.196;2023-06-10T21:41:37;100673.15;;;29.18;31.58
63916;BME280;50094;51.356;-0.196;2023-06-10T21:44:04;100670.61;;;28.88;31.56
63916;BME280;50094;51.356;-0.196;2023-06-10T21:46:31;100672.49;;;28.86;31.56
63916;BME280;50094;51.356;-0.196;2023-06-10T21:48:58;100670.37;;;28.83;31.58
63916;BME280;50094;51.356;-0.196;2023-06-10T21:51:25;100666.47;;;28.80;31.55
63916;BME280;50094;51.356;-0.196;2023-06-10T21:53:51;100668.89;;;29.03;31.55
63916;BME280;50094;51.356;-0.196;2023-06-10T21:56:18;100668.06;;;28.73;31.58
63916;BME280;50094;51.356;-0.196;2023-06-10T21:58:46;100667.28;;;28.75;31.58
63916;BME280;50094;51.356;-0.196;2023-06-10T22:01:12;100667.08;;;28.78;31.56
63916;BME280;50094;51.356;-0.196;2023-06-10T22:03:39;100668.51;;;29.03;31.54
63916;BME280;50094;51.356;-0.196;2023-06-10T22:06:06;100668.45;;;28.74;31.56
63916;BME280;50094;51.356;-0.196;2023-06-10T22:08:33;100668.21;;;28.74;31.56
63916;BME280;50094;51.356;-0.196;2023-06-10T22:11:01;100669.77;;;28.73;31.56
63916;BME280;50094;51.356;-0.196;2023-06-10T22:13:28;100671.06;;;28.74;31.54
63916;BME280;50094;51.356;-0.196;2023-06-10T22:15:55;100668.49;;;29.00;31.56
63916;BME280;50094;51.356;-0.196;2023-06-10T22:18:22;100670.20;;;28.99;31.56
63916;BME280;50094;51.356;-0.196;2023-06-10T22:20:49;100671.84;;;28.95;31.57
63916;BME280;50094;51.356;-0.196;2023-06-10T22:23:19;100671.04;;;28.85;31.73
63916;BME280;50094;51.356;-0.196;2023-06-10T22:25:46;100673.64;;;28.90;31.72
63916;BME280;50094;51.356;-0.196;2023-06-10T22:28:14;100674.09;;;28.69;31.54
63916;BME280;50094;51.356;-0.196;2023-06-10T22:30:41;100675.29;;;28.67;31.58
63916;BME280;50094;51.356;-0.196;2023-06-10T22:33:08;100676.82;;;29.03;31.47
63916;BME280;50094;51.356;-0.196;2023-06-10T22:35:35;100681.38;;;28.99;31.48
63916;BME280;50094;51.356;-0.196;2023-06-10T22:38:02;100685.39;;;28.68;31.51
63916;BME280;50094;51.356;-0.196;2023-06-10T22:40:29;100687.33;;;28.68;31.54
63916;BME280;50094;51.356;-0.196;2023-06-10T22:42:57;100684.03;;;28.97;31.58
63916;BME280;50094;51.356;-0.196;2023-06-10T22:45:24;100679.68;;;28.97;31.57
63916;BME280;50094;51.356;-0.196;2023-06-10T22:47:51;100679.50;;;28.67;31.57
63916;BME280;50094;51.356;-0.196;2023-06-10T22:50:18;100680.76;;;28.68;31.60
63916;BME280;50094;51.356;-0.196;2023-06-10T22:52:45;100679.17;;;28.76;31.58
63916;BME280;50094;51.356;-0.196;2023-06-10T22:55:12;100681.22;;;28.87;31.49
63916;BME280;50094;51.356;-0.196;2023-06-10T22:57:39;100678.27;;;28.96;31.43
63916;BME280;50094;51.356;-0.196;2023-06-10T23:00:07;100677.90;;;28.59;31.37
63916;BME280;50094;51.356;-0.196;2023-06-10T23:02:35;100672.09;;;27.57;30.69
63916;BME280;50094;51.356;-0.196;2023-06-10T23:05:03;100667.71;;;30.89;29.55
63916;BME280;50094;51.356;-0.196;2023-06-10T23:07:30;100668.67;;;31.16;29.24
63916;BME280;50094;51.356;-0.196;2023-06-10T23:09:57;100664.63;;;30.25;29.31
63916;BME280;50094;51.356;-0.196;2023-06-10T23:12:24;100663.33;;;30.11;29.54
63916;BME280;50094;51.356;-0.196;2023-06-10T23:14:51;100662.39;;;29.61;29.84
63916;BME280;50094;51.356;-0.196;2023-06-10T23:17:17;100665.57;;;29.64;30.15
63916;BME280;50094;51.356;-0.196;2023-06-10T23:19:44;100667.76;;;29.39;30.42
63916;BME280;50094;51.356;-0.196;2023-06-10T23:22:11;100665.59;;;29.02;30.63
63916;BME280;50094;51.356;-0.196;2023-06-10T23:24:40;100662.27;;;28.99;30.77
63916;BME280;50094;51.356;-0.196;2023-06-10T23:27:07;100662.69;;;29.19;30.89
63916;BME280;50094;51.356;-0.196;2023-06-10T23:29:34;100661.63;;;29.12;31.00
63916;BME280;50094;51.356;-0.196;2023-06-10T23:32:01;100662.94;;;29.09;31.06
63916;BME280;50094;51.356;-0.196;2023-06-10T23:34:28;100665.27;;;28.98;31.18
63916;BME280;50094;51.356;-0.196;2023-06-10T23:36:55;100660.75;;;29.17;31.34
63916;BME280;50094;51.356;-0.196;2023-06-10T23:39:22;100657.38;;;29.16;31.38
63916;BME280;50094;51.356;-0.196;2023-06-10T23:41:50;100654.66;;;29.00;31.40
63916;BME280;50094;51.356;-0.196;2023-06-10T23:44:17;100661.12;;;28.97;31.40
63916;BME280;50094;51.356;-0.196;2023-06-10T23:46:43;100659.12;;;29.15;31.45
63916;BME280;50094;51.356;-0.196;2023-06-10T23:49:10;100657.71;;;28.83;31.54
63916;BME280;50094;51.356;-0.196;2023-06-10T23:51:38;100659.57;;;29.33;31.60
63916;BME280;50094;51.356;-0.196;2023-06-10T23:54:06;100656.96;;;29.26;31.66
63916;BME280;50094;51.356;-0.196;2023-06-10T23:56:33;100655.54;;;28.99;31.72
63916;BME280;50094;51.356;-0.196;2023-06-10T23:59:00;100653.16;;;28.99;31.76
